createdAt,value
2017-09-01T00:02:25.044Z,11.10
2017-09-01T00:04:52.854Z,11.10
2017-09-01T00:07:20.712Z,11.10
2017-09-01T00:09:48.539Z,11.10
2017-09-01T00:12:16.385Z,11.10
2017-09-01T00:14:44.173Z,11.13
2017-09-01T00:17:11.984Z,11.14
2017-09-01T00:19:39.835Z,11.16
2017-09-01T00:22:07.683Z,11.19
2017-09-01T00:24:35.518Z,11.21
2017-09-01T00:27:03.333Z,11.22
2017-09-01T00:29:31.218Z,11.24
2017-09-01T00:31:59.087Z,11.23
2017-09-01T00:34:26.956Z,11.19
2017-09-01T00:36:54.790Z,11.20
2017-09-01T00:39:22.675Z,11.21
2017-09-01T00:41:50.516Z,11.32
2017-09-01T00:44:18.336Z,11.42
2017-09-01T00:46:46.190Z,11.41
2017-09-01T00:49:14.008Z,11.36
2017-09-01T00:51:41.902Z,11.32
2017-09-01T00:54:09.750Z,11.29
2017-09-01T00:56:37.636Z,11.28
2017-09-01T00:59:05.514Z,11.28
2017-09-01T01:01:33.390Z,11.27
2017-09-01T01:04:01.225Z,11.29
2017-09-01T01:06:29.113Z,11.34
2017-09-01T01:08:56.965Z,11.35
2017-09-01T01:11:24.885Z,11.40
2017-09-01T01:13:52.652Z,11.46
2017-09-01T01:16:20.557Z,11.48
2017-09-01T01:18:48.844Z,11.51
2017-09-01T01:21:16.742Z,11.53
2017-09-01T01:23:44.722Z,11.55
2017-09-01T01:26:12.605Z,11.53
2017-09-01T01:28:40.541Z,11.46
2017-09-01T01:31:08.409Z,11.46
2017-09-01T01:33:36.313Z,11.37
2017-09-01T01:36:04.215Z,11.28
2017-09-01T01:38:32.107Z,11.17
2017-09-01T01:40:59.969Z,11.10
2017-09-01T01:43:27.848Z,11.09
2017-09-01T01:45:55.719Z,11.08
2017-09-01T01:48:23.624Z,11.12
2017-09-01T01:50:51.474Z,11.19
2017-09-01T01:53:19.253Z,11.25
2017-09-01T01:55:47.157Z,11.30
2017-09-01T01:58:15.044Z,11.29
2017-09-01T02:00:42.917Z,11.32
2017-09-01T02:03:10.756Z,11.31
2017-09-01T02:05:38.660Z,11.32
2017-09-01T02:08:06.530Z,11.31
2017-09-01T02:10:34.340Z,11.30
2017-09-01T02:13:02.178Z,11.31
2017-09-01T02:15:30.092Z,11.32
2017-09-01T02:17:57.933Z,11.33
2017-09-01T02:20:25.917Z,11.31
2017-09-01T02:22:53.797Z,11.31
2017-09-01T02:25:21.714Z,11.29
2017-09-01T02:27:49.609Z,11.24
2017-09-01T02:30:17.508Z,11.15
2017-09-01T02:32:45.439Z,11.13
2017-09-01T02:35:13.320Z,11.11
2017-09-01T02:37:41.286Z,11.08
2017-09-01T02:40:09.191Z,11.04
2017-09-01T02:42:37.022Z,11.04
2017-09-01T02:45:04.888Z,11.04
2017-09-01T02:47:32.814Z,11.02
2017-09-01T02:50:00.733Z,10.98
2017-09-01T02:52:28.724Z,10.99
2017-09-01T02:54:56.603Z,10.99
2017-09-01T02:57:24.544Z,11.00
2017-09-01T02:59:52.421Z,11.02
2017-09-01T03:02:20.279Z,11.05
2017-09-01T03:04:48.222Z,11.06
2017-09-01T03:07:16.082Z,11.05
2017-09-01T03:09:43.999Z,11.00
2017-09-01T03:12:11.888Z,10.96
2017-09-01T03:14:39.809Z,10.93
2017-09-01T03:17:07.699Z,10.91
2017-09-01T03:19:35.661Z,10.89
2017-09-01T03:22:03.554Z,10.87
2017-09-01T03:24:31.490Z,10.86
2017-09-01T03:26:59.374Z,10.87
2017-09-01T03:29:27.305Z,10.84
2017-09-01T03:31:55.169Z,10.81
2017-09-01T03:34:23.070Z,10.77
2017-09-01T03:36:50.989Z,10.75
2017-09-01T03:39:18.872Z,10.64
2017-09-01T03:41:46.809Z,10.51
2017-09-01T03:44:14.693Z,10.42
2017-09-01T03:46:42.653Z,10.39
2017-09-01T03:49:10.556Z,10.34
2017-09-01T03:51:38.391Z,10.30
2017-09-01T03:54:06.305Z,10.28
2017-09-01T03:56:34.215Z,10.24
2017-09-01T03:59:02.074Z,10.20
2017-09-01T04:01:29.989Z,10.16
2017-09-01T04:03:58.687Z,10.16
2017-09-01T04:06:26.581Z,10.16
2017-09-01T04:08:54.435Z,10.15
2017-09-01T04:11:22.405Z,10.06
2017-09-01T04:13:50.311Z,10.07
2017-09-01T04:16:18.220Z,10.13
2017-09-01T04:18:46.184Z,10.17
2017-09-01T04:21:14.046Z,10.04
2017-09-01T04:23:41.952Z,9.96
2017-09-01T04:26:09.801Z,9.90
2017-09-01T04:28:37.699Z,9.84
2017-09-01T04:31:05.517Z,9.83
2017-09-01T04:33:33.395Z,9.81
2017-09-01T04:36:01.250Z,9.78
2017-09-01T04:38:29.009Z,9.79
2017-09-01T04:40:56.815Z,9.80
2017-09-01T04:43:24.603Z,9.77
2017-09-01T04:45:52.385Z,9.76
2017-09-01T04:48:20.164Z,9.77
2017-09-01T04:50:47.999Z,9.77
2017-09-01T04:53:15.730Z,9.82
2017-09-01T04:55:43.525Z,9.91
2017-09-01T04:58:11.283Z,10.02
2017-09-01T05:00:39.121Z,10.10
2017-09-01T05:03:06.938Z,10.15
2017-09-01T05:05:34.750Z,10.24
2017-09-01T05:08:02.523Z,10.37
2017-09-01T05:10:30.287Z,10.51
2017-09-01T05:12:58.111Z,10.64
2017-09-01T05:15:25.880Z,10.79
2017-09-01T05:17:53.689Z,10.93
2017-09-01T05:20:21.459Z,11.09
2017-09-01T05:22:49.263Z,11.26
2017-09-01T05:25:17.045Z,11.46
2017-09-01T05:27:44.832Z,11.66
2017-09-01T05:30:12.588Z,11.85
2017-09-01T05:32:40.483Z,12.03
2017-09-01T05:35:08.268Z,12.26
2017-09-01T05:37:36.082Z,12.50
2017-09-01T05:40:03.838Z,12.74
2017-09-01T05:42:31.640Z,12.97
2017-09-01T05:44:59.373Z,13.11
2017-09-01T05:47:27.090Z,13.17
2017-09-01T05:49:54.904Z,13.15
2017-09-01T05:52:22.650Z,13.13
2017-09-01T05:54:50.447Z,13.11
2017-09-01T05:57:18.209Z,13.10
2017-09-01T05:59:45.993Z,13.08
2017-09-01T06:02:13.710Z,13.06
2017-09-01T06:04:41.472Z,13.07
2017-09-01T06:07:09.231Z,13.08
2017-09-01T06:09:37.009Z,13.10
2017-09-01T06:12:04.763Z,13.19
2017-09-01T06:14:32.520Z,13.29
2017-09-01T06:17:00.284Z,13.48
2017-09-01T06:19:28.052Z,13.70
2017-09-01T06:21:55.797Z,13.87
2017-09-01T06:24:23.598Z,14.00
2017-09-01T06:26:51.436Z,14.12
2017-09-01T06:29:19.237Z,14.27
2017-09-01T06:31:47.033Z,14.48
2017-09-01T06:34:14.771Z,14.70
2017-09-01T06:36:42.545Z,14.84
2017-09-01T06:39:10.287Z,14.96
2017-09-01T06:41:38.050Z,14.90
2017-09-01T06:44:05.862Z,14.88
2017-09-01T06:46:33.706Z,14.87
2017-09-01T06:49:01.485Z,14.93
2017-09-01T06:51:29.293Z,15.04
2017-09-01T06:53:57.037Z,15.12
2017-09-01T06:56:24.837Z,15.24
2017-09-01T06:58:52.624Z,15.27
2017-09-01T07:01:20.361Z,15.28
2017-09-01T07:03:48.175Z,15.38
2017-09-01T07:06:15.937Z,15.50
2017-09-01T07:08:43.720Z,15.74
2017-09-01T07:11:11.468Z,15.93
2017-09-01T07:13:39.282Z,16.09
2017-09-01T07:16:07.012Z,16.23
2017-09-01T07:18:34.794Z,16.40
2017-09-01T07:21:02.535Z,16.60
2017-09-01T07:23:30.322Z,16.74
2017-09-01T07:25:58.074Z,16.85
2017-09-01T07:28:25.892Z,16.82
2017-09-01T07:30:53.693Z,16.83
2017-09-01T07:33:21.481Z,16.93
2017-09-01T07:35:49.294Z,17.03
2017-09-01T07:38:17.025Z,17.08
2017-09-01T07:40:44.792Z,17.13
2017-09-01T07:43:12.646Z,17.26
2017-09-01T07:45:40.591Z,17.35
2017-09-01T07:48:08.449Z,17.37
2017-09-01T07:50:36.382Z,17.39
2017-09-01T07:53:04.256Z,17.45
2017-09-01T07:55:32.153Z,17.47
2017-09-01T07:58:00.037Z,17.59
2017-09-01T08:00:27.916Z,17.75
2017-09-01T08:02:55.796Z,17.94
2017-09-01T08:05:23.714Z,18.15
2017-09-01T08:07:51.604Z,18.28
2017-09-01T08:10:19.364Z,18.33
2017-09-01T08:12:47.349Z,18.46
2017-09-01T08:15:15.211Z,18.70
2017-09-01T08:17:43.164Z,18.76
2017-09-01T08:20:10.904Z,18.86
2017-09-01T08:22:38.710Z,18.92
2017-09-01T08:25:06.507Z,18.84
2017-09-01T08:27:34.298Z,18.96
2017-09-01T08:30:02.064Z,19.19
2017-09-01T08:32:29.853Z,19.21
2017-09-01T08:34:57.641Z,19.32
2017-09-01T08:37:25.355Z,19.21
2017-09-01T08:39:54.518Z,19.25
2017-09-01T08:42:22.966Z,19.13
2017-09-01T08:44:50.770Z,19.11
2017-09-01T08:47:18.516Z,19.08
2017-09-01T08:49:46.315Z,19.07
2017-09-01T08:52:14.057Z,19.08
2017-09-01T08:54:41.846Z,19.16
2017-09-01T08:57:09.604Z,19.35
2017-09-01T08:59:37.487Z,19.44
2017-09-01T09:02:05.250Z,19.61
2017-09-01T09:04:33.057Z,19.48
2017-09-01T09:07:00.866Z,19.48
2017-09-01T09:09:28.692Z,19.45
2017-09-01T09:11:56.476Z,19.43
2017-09-01T09:14:24.242Z,19.51
2017-09-01T09:16:52.149Z,19.72
2017-09-01T09:19:19.914Z,19.89
2017-09-01T09:21:47.838Z,20.00
2017-09-01T09:24:15.778Z,20.14
2017-09-01T09:26:43.700Z,20.30
2017-09-01T09:29:11.588Z,20.58
2017-09-01T09:31:39.484Z,20.66
2017-09-01T09:34:07.331Z,20.33
2017-09-01T09:36:35.231Z,19.93
2017-09-01T09:39:03.188Z,19.59
2017-09-01T09:41:31.089Z,19.40
2017-09-01T09:43:58.943Z,19.21
2017-09-01T09:46:26.871Z,19.01
2017-09-01T09:48:54.733Z,18.83
2017-09-01T09:51:22.569Z,19.08
2017-09-01T09:53:50.461Z,19.51
2017-09-01T09:56:18.339Z,19.60
2017-09-01T09:58:46.225Z,19.61
2017-09-01T10:01:14.092Z,19.92
2017-09-01T10:03:41.904Z,20.24
2017-09-01T10:06:09.776Z,20.38
2017-09-01T10:08:37.677Z,20.51
2017-09-01T10:11:05.553Z,20.67
2017-09-01T10:13:33.520Z,20.78
2017-09-01T10:16:01.421Z,20.50
2017-09-01T10:18:29.361Z,19.90
2017-09-01T10:20:57.228Z,19.39
2017-09-01T10:23:25.125Z,19.05
2017-09-01T10:25:53.095Z,18.83
2017-09-01T10:28:21.016Z,19.17
2017-09-01T10:30:48.963Z,19.69
2017-09-01T10:33:16.800Z,20.18
2017-09-01T10:35:44.694Z,20.42
2017-09-01T10:38:12.604Z,20.68
2017-09-01T10:40:40.508Z,20.83
2017-09-01T10:43:08.389Z,21.10
2017-09-01T10:45:36.190Z,21.06
2017-09-01T10:48:15.885Z,20.91
2017-09-01T10:50:55.591Z,20.64
2017-09-01T10:53:35.050Z,20.51
2017-09-01T10:56:14.609Z,20.51
2017-09-01T10:58:43.425Z,20.70
2017-09-01T11:01:11.201Z,20.84
2017-09-01T11:03:38.956Z,20.98
2017-09-01T11:06:06.853Z,21.21
2017-09-01T11:08:34.630Z,21.46
2017-09-01T11:11:02.570Z,21.50
2017-09-01T11:13:30.378Z,21.44
2017-09-01T11:15:58.310Z,21.42
2017-09-01T11:18:27.205Z,21.22
2017-09-01T11:21:00.531Z,20.75
2017-09-01T11:23:34.140Z,20.69
2017-09-01T11:26:02.040Z,20.81
2017-09-01T11:28:29.900Z,21.09
2017-09-01T11:30:57.756Z,21.35
2017-09-01T11:33:25.658Z,21.59
2017-09-01T11:35:53.532Z,21.73
2017-09-01T11:38:21.480Z,21.69
2017-09-01T11:40:49.332Z,21.75
2017-09-01T11:43:17.264Z,21.98
2017-09-01T11:45:45.133Z,22.09
2017-09-01T11:48:13.070Z,21.78
2017-09-01T11:50:40.945Z,21.28
2017-09-01T11:53:08.899Z,20.94
2017-09-01T11:55:36.808Z,20.82
2017-09-01T11:58:04.724Z,20.68
2017-09-01T12:00:32.643Z,20.94
2017-09-01T12:03:00.551Z,21.08
2017-09-01T12:05:28.310Z,21.14
2017-09-01T12:07:56.237Z,20.98
2017-09-01T12:10:23.973Z,20.82
2017-09-01T12:12:51.702Z,20.83
2017-09-01T12:15:19.482Z,21.00
2017-09-01T12:17:47.205Z,20.92
2017-09-01T12:20:15.021Z,20.69
2017-09-01T12:22:42.920Z,20.86
2017-09-01T12:25:10.812Z,21.01
2017-09-01T12:27:38.667Z,21.16
2017-09-01T12:30:06.588Z,21.34
2017-09-01T12:32:34.515Z,21.44
2017-09-01T12:35:02.398Z,21.58
2017-09-01T12:37:30.279Z,21.63
2017-09-01T12:39:58.223Z,21.50
2017-09-01T12:42:26.099Z,21.57
2017-09-01T12:44:54.013Z,21.50
2017-09-01T12:47:21.859Z,21.45
2017-09-01T12:49:49.710Z,21.42
2017-09-01T12:52:17.604Z,21.20
2017-09-01T12:54:45.459Z,21.09
2017-09-01T12:57:13.350Z,21.13
2017-09-01T12:59:41.204Z,21.23
2017-09-01T13:02:09.102Z,21.14
2017-09-01T13:04:36.938Z,21.09
2017-09-01T13:07:04.820Z,21.21
2017-09-01T13:09:32.716Z,21.38
2017-09-01T13:12:00.623Z,21.47
2017-09-01T13:14:28.458Z,21.52
2017-09-01T13:16:56.310Z,21.53
2017-09-01T13:19:24.111Z,21.52
2017-09-01T13:21:51.956Z,21.37
2017-09-01T13:24:19.875Z,21.21
2017-09-01T13:26:47.750Z,21.30
2017-09-01T13:29:15.666Z,21.28
2017-09-01T13:31:43.536Z,21.33
2017-09-01T13:34:11.461Z,21.44
2017-09-01T13:36:39.305Z,21.53
2017-09-01T13:39:07.219Z,21.55
2017-09-01T13:41:35.064Z,21.46
2017-09-01T13:44:02.979Z,21.44
2017-09-01T13:46:30.858Z,21.26
2017-09-01T13:48:58.737Z,21.23
2017-09-01T13:51:26.630Z,21.13
2017-09-01T13:53:54.463Z,21.25
2017-09-01T13:56:22.306Z,21.29
2017-09-01T13:58:50.175Z,21.21
2017-09-01T14:01:17.979Z,21.20
2017-09-01T14:03:45.785Z,21.12
2017-09-01T14:06:13.603Z,21.19
2017-09-01T14:08:41.370Z,21.22
2017-09-01T14:11:09.145Z,20.95
2017-09-01T14:13:36.905Z,20.77
2017-09-01T14:16:04.722Z,20.65
2017-09-01T14:18:32.568Z,20.63
2017-09-01T14:21:00.428Z,20.79
2017-09-01T14:23:28.202Z,20.98
2017-09-01T14:25:56.048Z,21.16
2017-09-01T14:28:23.812Z,21.26
2017-09-01T14:30:51.632Z,21.31
2017-09-01T14:33:19.435Z,21.38
2017-09-01T14:35:47.241Z,21.30
2017-09-01T14:38:15.026Z,21.34
2017-09-01T14:40:42.849Z,21.20
2017-09-01T14:43:10.743Z,20.80
2017-09-01T14:45:38.575Z,20.62
2017-09-01T14:48:06.440Z,20.60
2017-09-01T14:50:34.286Z,20.68
2017-09-01T14:53:02.218Z,20.53
2017-09-01T14:55:30.068Z,20.52
2017-09-01T14:57:57.939Z,20.52
2017-09-01T15:00:25.789Z,20.49
2017-09-01T15:02:53.695Z,20.50
2017-09-01T15:05:21.544Z,20.60
2017-09-01T15:07:49.405Z,20.63
2017-09-01T15:10:17.271Z,20.66
2017-09-01T15:12:45.109Z,20.60
2017-09-01T15:15:13.037Z,20.62
2017-09-01T15:17:40.876Z,20.66
2017-09-01T15:20:08.758Z,20.61
2017-09-01T15:22:36.639Z,20.61
2017-09-01T15:25:04.520Z,20.63
2017-09-01T15:27:32.347Z,20.62
2017-09-01T15:30:00.232Z,20.60
2017-09-01T15:32:28.063Z,20.33
2017-09-01T15:34:55.838Z,20.15
2017-09-01T15:37:23.675Z,20.05
2017-09-01T15:39:51.566Z,20.06
2017-09-01T15:42:19.413Z,19.99
2017-09-01T15:44:47.225Z,19.97
2017-09-01T15:47:15.104Z,20.05
2017-09-01T15:49:42.943Z,20.17
2017-09-01T15:52:10.842Z,20.23
2017-09-01T15:54:38.684Z,20.22
2017-09-01T15:57:06.569Z,20.07
2017-09-01T15:59:34.397Z,19.95
2017-09-01T16:02:02.244Z,19.88
2017-09-01T16:04:30.052Z,19.90
2017-09-01T16:06:57.935Z,19.91
2017-09-01T16:09:25.740Z,19.91
2017-09-01T16:11:53.615Z,19.91
2017-09-01T16:14:21.454Z,19.78
2017-09-01T16:16:49.270Z,19.76
2017-09-01T16:19:17.260Z,19.74
2017-09-01T16:21:44.996Z,19.72
2017-09-01T16:24:12.911Z,19.67
2017-09-01T16:26:40.730Z,19.59
2017-09-01T16:29:08.528Z,19.51
2017-09-01T16:31:36.393Z,19.47
2017-09-01T16:34:04.297Z,19.48
2017-09-01T16:36:32.145Z,19.59
2017-09-01T16:39:00.029Z,19.57
2017-09-01T16:41:27.855Z,19.46
2017-09-01T16:43:55.758Z,19.38
2017-09-01T16:46:23.571Z,19.16
2017-09-01T16:48:51.408Z,18.96
2017-09-01T16:51:19.621Z,18.80
2017-09-01T16:53:47.408Z,18.61
2017-09-01T16:56:15.213Z,18.52
2017-09-01T16:58:42.940Z,18.42
2017-09-01T17:01:10.731Z,18.30
2017-09-01T17:03:38.455Z,18.20
2017-09-01T17:06:06.236Z,18.14
2017-09-01T17:08:33.960Z,18.09
2017-09-01T17:11:01.709Z,18.02
2017-09-01T17:13:29.459Z,18.00
2017-09-01T17:15:57.245Z,17.98
2017-09-01T17:18:24.941Z,17.93
2017-09-01T17:20:52.693Z,17.89
2017-09-01T17:23:20.413Z,17.85
2017-09-01T17:25:48.228Z,17.79
2017-09-01T17:28:15.935Z,17.73
2017-09-01T17:30:43.697Z,17.69
2017-09-01T17:33:11.468Z,17.63
2017-09-01T17:35:39.180Z,17.57
2017-09-01T17:38:06.976Z,17.50
2017-09-01T17:40:34.699Z,17.43
2017-09-01T17:43:02.538Z,17.37
2017-09-01T17:45:30.291Z,17.29
2017-09-01T17:47:58.138Z,17.20
2017-09-01T17:50:25.842Z,17.14
2017-09-01T17:52:53.593Z,17.08
2017-09-01T17:55:21.315Z,17.02
2017-09-01T17:57:49.071Z,16.96
2017-09-01T18:00:16.808Z,16.93
2017-09-01T18:02:44.585Z,16.88
2017-09-01T18:05:12.299Z,16.86
2017-09-01T18:07:40.103Z,16.83
2017-09-01T18:10:07.845Z,16.77
2017-09-01T18:12:35.567Z,16.74
2017-09-01T18:15:03.339Z,16.71
2017-09-01T18:17:31.137Z,16.67
2017-09-01T18:19:58.924Z,16.65
2017-09-01T18:22:26.667Z,16.60
2017-09-01T18:24:54.431Z,16.55
2017-09-01T18:27:22.142Z,16.47
2017-09-01T18:29:49.899Z,16.38
2017-09-01T18:32:17.667Z,16.34
2017-09-01T18:34:45.457Z,16.34
2017-09-01T18:37:13.303Z,16.34
2017-09-01T18:39:41.113Z,16.31
2017-09-01T18:42:08.868Z,16.25
2017-09-01T18:44:36.592Z,16.18
2017-09-01T18:47:04.360Z,16.12
2017-09-01T18:49:32.084Z,16.07
2017-09-01T18:51:59.910Z,16.00
2017-09-01T18:54:27.723Z,15.94
2017-09-01T18:56:55.489Z,15.89
2017-09-01T18:59:23.214Z,15.87
2017-09-01T19:01:51.016Z,15.87
2017-09-01T19:04:18.763Z,15.85
2017-09-01T19:06:46.586Z,15.83
2017-09-01T19:09:14.405Z,15.80
2017-09-01T19:11:42.201Z,15.77
2017-09-01T19:14:10.009Z,15.73
2017-09-01T19:18:38.972Z,15.64
2017-09-01T19:21:06.908Z,15.61
2017-09-01T19:23:34.696Z,15.58
2017-09-01T19:26:02.496Z,15.54
2017-09-01T19:28:30.380Z,15.51
2017-09-01T19:30:58.128Z,15.47
2017-09-01T19:33:25.904Z,15.41
2017-09-01T19:35:53.669Z,15.36
2017-09-01T19:38:22.174Z,15.31
2017-09-01T19:40:49.924Z,15.26
2017-09-01T19:43:17.699Z,15.22
2017-09-01T19:45:45.595Z,15.16
2017-09-01T19:48:13.384Z,15.12
2017-09-01T19:50:41.215Z,15.08
2017-09-01T19:53:09.017Z,15.04
2017-09-01T19:55:36.860Z,15.02
2017-09-01T19:58:04.609Z,14.98
2017-09-01T20:00:32.402Z,14.94
2017-09-01T20:03:00.141Z,14.90
2017-09-01T20:05:27.924Z,14.85
2017-09-01T20:07:55.673Z,14.78
2017-09-01T20:10:23.506Z,14.72
2017-09-01T20:12:51.262Z,14.67
2017-09-01T20:15:18.999Z,14.65
2017-09-01T20:17:46.761Z,14.64
2017-09-01T20:20:14.487Z,14.59
2017-09-01T20:22:42.284Z,14.54
2017-09-01T20:25:10.039Z,14.52
2017-09-01T20:27:37.913Z,14.50
2017-09-01T20:30:05.652Z,14.51
2017-09-01T20:32:33.461Z,14.47
2017-09-01T20:35:01.182Z,14.46
2017-09-01T20:37:29.001Z,14.47
2017-09-01T20:39:56.885Z,14.49
2017-09-01T20:42:24.706Z,14.49
2017-09-01T20:44:52.436Z,14.47
2017-09-01T20:47:20.241Z,14.48
2017-09-01T20:49:47.978Z,14.47
2017-09-01T20:52:15.698Z,14.45
2017-09-01T20:54:43.512Z,14.46
2017-09-01T20:57:11.254Z,14.47
2017-09-01T20:59:39.018Z,14.48
2017-09-01T21:02:06.727Z,14.44
2017-09-01T21:04:34.516Z,14.39
2017-09-01T21:07:02.279Z,14.37
2017-09-01T21:09:30.070Z,14.28
2017-09-01T21:11:57.785Z,14.19
2017-09-01T21:14:25.537Z,14.08
2017-09-01T21:16:53.258Z,14.04
2017-09-01T21:19:21.041Z,14.02
2017-09-01T21:21:48.809Z,14.06
2017-09-01T21:24:16.564Z,14.13
2017-09-01T21:26:44.329Z,14.16
2017-09-01T21:29:12.085Z,14.19
2017-09-01T21:31:39.882Z,14.22
2017-09-01T21:34:07.605Z,14.26
2017-09-01T21:36:35.358Z,14.25
2017-09-01T21:39:03.165Z,14.23
2017-09-01T21:41:30.943Z,14.19
2017-09-01T21:43:58.669Z,14.18
2017-09-01T21:46:26.410Z,14.19
2017-09-01T21:48:54.184Z,14.16
2017-09-01T21:51:21.895Z,14.10
2017-09-01T21:53:49.653Z,14.02
2017-09-01T21:56:17.396Z,13.94
2017-09-01T21:58:45.166Z,13.91
2017-09-01T22:01:24.746Z,13.92
2017-09-01T22:03:52.553Z,13.94
2017-09-01T22:06:20.288Z,13.98
2017-09-01T22:08:48.087Z,14.00
2017-09-01T22:11:15.796Z,14.03
2017-09-01T22:13:43.621Z,14.03
2017-09-01T22:16:11.373Z,14.03
2017-09-01T22:18:39.172Z,14.06
2017-09-01T22:21:06.969Z,14.09
2017-09-01T22:23:34.697Z,14.11
2017-09-01T22:26:02.477Z,14.12
2017-09-01T22:28:30.186Z,14.12
2017-09-01T22:30:57.969Z,14.09
2017-09-01T22:33:25.796Z,14.07
2017-09-01T22:35:53.682Z,14.05
2017-09-01T22:38:21.510Z,14.04
2017-09-01T22:40:49.268Z,14.04
2017-09-01T22:43:17.094Z,14.02
2017-09-01T22:45:44.967Z,14.00
2017-09-01T22:48:12.751Z,13.97
2017-09-01T22:50:40.574Z,13.98
2017-09-01T22:53:08.393Z,13.98
2017-09-01T22:55:36.101Z,13.98
2017-09-01T22:58:03.965Z,13.99
2017-09-01T23:00:31.872Z,14.00
2017-09-01T23:02:59.725Z,13.99
2017-09-01T23:05:27.436Z,13.92
2017-09-01T23:07:55.320Z,13.88
2017-09-01T23:10:23.055Z,13.87
2017-09-01T23:12:50.832Z,13.84
2017-09-01T23:15:18.557Z,13.82
2017-09-01T23:17:46.452Z,13.82
2017-09-01T23:20:14.280Z,13.85
2017-09-01T23:22:42.003Z,13.83
2017-09-01T23:25:09.880Z,13.84
2017-09-01T23:27:37.718Z,13.83
2017-09-01T23:30:05.501Z,13.81
2017-09-01T23:32:33.227Z,13.78
2017-09-01T23:35:00.995Z,13.77
2017-09-01T23:37:28.862Z,13.75
2017-09-01T23:39:56.719Z,13.72
2017-09-01T23:42:24.534Z,13.71
2017-09-01T23:44:52.322Z,13.69
2017-09-01T23:47:20.142Z,13.68
2017-09-01T23:49:48.068Z,13.65
2017-09-01T23:52:15.890Z,13.61
2017-09-01T23:54:43.772Z,13.58
2017-09-01T23:57:11.581Z,13.59
2017-09-01T23:59:39.406Z,13.59
